sensor_id;sensor_type;location;lat;lon;timestamp;P1;durP1;ratioP1;P2;durP2;ratioP2
29878;SDS011;16752;53.364;-1.488;2023-06-19T00:09:09;11.48;;;7.60;;
29878;SDS011;16752;53.364;-1.488;2023-06-19T00:12:04;11.85;;;8.52;;
29878;SDS011;16752;53.364;-1.488;2023-06-19T00:14:56;13.27;;;9.60;;
29878;SDS011;16752;53.364;-1.488;2023-06-19T00:17:43;9.50;;;8.57;;
29878;SDS011;16752;53.364;-1.488;2023-06-19T00:20:28;14.18;;;9.23;;
29878;SDS011;16752;53.364;-1.488;2023-06-19T00:23:15;11.43;;;8.80;;
29878;SDS011;16752;53.364;-1.488;2023-06-19T00:26:00;10.27;;;9.20;;
29878;SDS011;16752;53.364;-1.488;2023-06-19T00:28:45;11.02;;;9.32;;
29878;SDS011;16752;53.364;-1.488;2023-06-19T00:31:32;11.57;;;9.20;;
29878;SDS011;16752;53.364;-1.488;2023-06-19T00:34:16;15.73;;;10.13;;
29878;SDS011;16752;53.364;-1.488;2023-06-19T00:37:01;16.30;;;11.05;;
29878;SDS011;16752;53.364;-1.488;2023-06-19T00:39:51;12.23;;;9.70;;
29878;SDS011;16752;53.364;-1.488;2023-06-19T00:42:37;13.88;;;10.07;;
29878;SDS011;16752;53.364;-1.488;2023-06-19T00:45:32;11.02;;;9.70;;
29878;SDS011;16752;53.364;-1.488;2023-06-19T00:48:18;10.43;;;9.35;;
29878;SDS011;16752;53.364;-1.488;2023-06-19T00:51:02;11.57;;;9.30;;
29878;SDS011;16752;53.364;-1.488;2023-06-19T00:53:46;10.40;;;9.13;;
29878;SDS011;16752;53.364;-1.488;2023-06-19T00:56:31;10.77;;;9.63;;
29878;SDS011;16752;53.364;-1.488;2023-06-19T00:59:18;11.02;;;9.68;;
29878;SDS011;16752;53.364;-1.488;2023-06-19T01:02:03;13.68;;;10.65;;
29878;SDS011;16752;53.364;-1.488;2023-06-19T01:04:48;12.77;;;10.40;;
29878;SDS011;16752;53.364;-1.488;2023-06-19T01:07:46;11.30;;;10.20;;
29878;SDS011;16752;53.364;-1.488;2023-06-19T01:10:58;13.45;;;10.68;;
29878;SDS011;16752;53.364;-1.488;2023-06-19T01:13:44;10.63;;;9.60;;
29878;SDS011;16752;53.364;-1.488;2023-06-19T01:16:32;13.05;;;10.60;;
29878;SDS011;16752;53.364;-1.488;2023-06-19T01:19:18;14.15;;;10.70;;
29878;SDS011;16752;53.364;-1.488;2023-06-19T01:22:07;16.30;;;10.73;;
29878;SDS011;16752;53.364;-1.488;2023-06-19T01:24:51;17.02;;;11.90;;
29878;SDS011;16752;53.364;-1.488;2023-06-19T01:27:35;12.50;;;11.25;;
29878;SDS011;16752;53.364;-1.488;2023-06-19T01:30:19;15.70;;;12.80;;
29878;SDS011;16752;53.364;-1.488;2023-06-19T01:33:04;14.18;;;12.68;;
29878;SDS011;16752;53.364;-1.488;2023-06-19T01:35:55;15.68;;;13.10;;
29878;SDS011;16752;53.364;-1.488;2023-06-19T01:38:40;16.80;;;14.27;;
29878;SDS011;16752;53.364;-1.488;2023-06-19T01:41:26;15.65;;;13.77;;
29878;SDS011;16752;53.364;-1.488;2023-06-19T01:44:12;16.42;;;13.02;;
29878;SDS011;16752;53.364;-1.488;2023-06-19T01:46:56;19.00;;;14.60;;
29878;SDS011;16752;53.364;-1.488;2023-06-19T01:49:40;20.13;;;15.00;;
29878;SDS011;16752;53.364;-1.488;2023-06-19T01:52:24;17.58;;;14.38;;
29878;SDS011;16752;53.364;-1.488;2023-06-19T01:55:09;19.83;;;15.68;;
29878;SDS011;16752;53.364;-1.488;2023-06-19T01:57:52;22.58;;;15.18;;
29878;SDS011;16752;53.364;-1.488;2023-06-19T02:00:36;17.45;;;14.30;;
29878;SDS011;16752;53.364;-1.488;2023-06-19T02:03:21;19.77;;;15.18;;
29878;SDS011;16752;53.364;-1.488;2023-06-19T02:06:05;18.00;;;14.65;;
29878;SDS011;16752;53.364;-1.488;2023-06-19T02:08:49;19.65;;;15.48;;
29878;SDS011;16752;53.364;-1.488;2023-06-19T02:11:34;19.92;;;15.93;;
29878;SDS011;16752;53.364;-1.488;2023-06-19T02:14:18;20.05;;;15.05;;
29878;SDS011;16752;53.364;-1.488;2023-06-19T02:17:01;17.95;;;15.32;;
29878;SDS011;16752;53.364;-1.488;2023-06-19T02:19:49;22.40;;;18.75;;
29878;SDS011;16752;53.364;-1.488;2023-06-19T02:22:33;21.50;;;17.65;;
29878;SDS011;16752;53.364;-1.488;2023-06-19T02:25:17;23.67;;;19.48;;
29878;SDS011;16752;53.364;-1.488;2023-06-19T02:28:02;21.17;;;16.67;;
29878;SDS011;16752;53.364;-1.488;2023-06-19T02:30:47;19.25;;;16.70;;
29878;SDS011;16752;53.364;-1.488;2023-06-19T02:33:31;20.60;;;16.73;;
29878;SDS011;16752;53.364;-1.488;2023-06-19T02:36:15;22.65;;;17.83;;
29878;SDS011;16752;53.364;-1.488;2023-06-19T02:39:06;29.02;;;18.00;;
29878;SDS011;16752;53.364;-1.488;2023-06-19T02:41:50;19.92;;;16.85;;
29878;SDS011;16752;53.364;-1.488;2023-06-19T02:44:34;20.30;;;17.10;;
29878;SDS011;16752;53.364;-1.488;2023-06-19T02:47:18;16.92;;;15.18;;
29878;SDS011;16752;53.364;-1.488;2023-06-19T02:50:05;19.30;;;15.73;;
29878;SDS011;16752;53.364;-1.488;2023-06-19T02:52:49;17.65;;;15.80;;
29878;SDS011;16752;53.364;-1.488;2023-06-19T02:55:33;19.15;;;14.63;;
29878;SDS011;16752;53.364;-1.488;2023-06-19T02:58:17;16.92;;;14.30;;
29878;SDS011;16752;53.364;-1.488;2023-06-19T03:01:02;21.92;;;15.02;;
29878;SDS011;16752;53.364;-1.488;2023-06-19T03:03:47;17.13;;;13.88;;
29878;SDS011;16752;53.364;-1.488;2023-06-19T03:06:31;16.85;;;15.10;;
29878;SDS011;16752;53.364;-1.488;2023-06-19T03:09:22;18.88;;;16.88;;
29878;SDS011;16752;53.364;-1.488;2023-06-19T03:12:06;16.95;;;15.02;;
29878;SDS011;16752;53.364;-1.488;2023-06-19T03:14:50;17.48;;;14.90;;
29878;SDS011;16752;53.364;-1.488;2023-06-19T03:17:34;17.88;;;15.93;;
29878;SDS011;16752;53.364;-1.488;2023-06-19T03:20:18;18.45;;;16.33;;
29878;SDS011;16752;53.364;-1.488;2023-06-19T03:23:04;17.67;;;14.43;;
29878;SDS011;16752;53.364;-1.488;2023-06-19T03:25:48;18.75;;;14.90;;
29878;SDS011;16752;53.364;-1.488;2023-06-19T03:28:31;17.17;;;15.18;;
29878;SDS011;16752;53.364;-1.488;2023-06-19T03:31:16;18.25;;;15.60;;
29878;SDS011;16752;53.364;-1.488;2023-06-19T03:33:59;18.35;;;15.55;;
29878;SDS011;16752;53.364;-1.488;2023-06-19T03:36:43;16.80;;;14.65;;
29878;SDS011;16752;53.364;-1.488;2023-06-19T03:39:27;21.25;;;14.95;;
29878;SDS011;16752;53.364;-1.488;2023-06-19T03:42:11;23.20;;;17.02;;
29878;SDS011;16752;53.364;-1.488;2023-06-19T03:44:55;15.90;;;14.27;;
29878;SDS011;16752;53.364;-1.488;2023-06-19T03:47:39;17.70;;;15.80;;
29878;SDS011;16752;53.364;-1.488;2023-06-19T03:50:23;20.88;;;16.30;;
29878;SDS011;16752;53.364;-1.488;2023-06-19T03:53:07;22.08;;;15.52;;
29878;SDS011;16752;53.364;-1.488;2023-06-19T03:55:52;18.30;;;15.27;;
29878;SDS011;16752;53.364;-1.488;2023-06-19T03:58:36;18.60;;;15.32;;
29878;SDS011;16752;53.364;-1.488;2023-06-19T04:01:20;16.85;;;14.18;;
29878;SDS011;16752;53.364;-1.488;2023-06-19T04:04:04;16.20;;;13.90;;
29878;SDS011;16752;53.364;-1.488;2023-06-19T04:06:48;16.15;;;12.65;;
29878;SDS011;16752;53.364;-1.488;2023-06-19T04:09:32;14.88;;;12.57;;
29878;SDS011;16752;53.364;-1.488;2023-06-19T04:12:15;13.93;;;11.43;;
29878;SDS011;16752;53.364;-1.488;2023-06-19T04:14:59;14.25;;;11.65;;
29878;SDS011;16752;53.364;-1.488;2023-06-19T04:17:43;14.25;;;11.18;;
29878;SDS011;16752;53.364;-1.488;2023-06-19T04:20:27;16.67;;;11.52;;
29878;SDS011;16752;53.364;-1.488;2023-06-19T04:23:11;16.38;;;12.35;;
29878;SDS011;16752;53.364;-1.488;2023-06-19T04:25:56;13.27;;;11.65;;
29878;SDS011;16752;53.364;-1.488;2023-06-19T04:28:40;19.70;;;12.68;;
29878;SDS011;16752;53.364;-1.488;2023-06-19T04:31:25;14.10;;;11.15;;
29878;SDS011;16752;53.364;-1.488;2023-06-19T04:34:10;14.63;;;11.05;;
29878;SDS011;16752;53.364;-1.488;2023-06-19T04:36:54;16.75;;;11.90;;
29878;SDS011;16752;53.364;-1.488;2023-06-19T04:39:42;14.15;;;11.80;;
29878;SDS011;16752;53.364;-1.488;2023-06-19T04:42:26;15.70;;;11.98;;
29878;SDS011;16752;53.364;-1.488;2023-06-19T04:45:10;14.27;;;11.75;;
29878;SDS011;16752;53.364;-1.488;2023-06-19T04:47:54;16.75;;;11.88;;
29878;SDS011;16752;53.364;-1.488;2023-06-19T04:50:38;17.83;;;13.40;;
29878;SDS011;16752;53.364;-1.488;2023-06-19T04:53:22;14.50;;;12.23;;
29878;SDS011;16752;53.364;-1.488;2023-06-19T04:56:07;17.88;;;12.27;;
29878;SDS011;16752;53.364;-1.488;2023-06-19T04:58:52;14.18;;;11.93;;
29878;SDS011;16752;53.364;-1.488;2023-06-19T05:01:38;16.20;;;13.95;;
29878;SDS011;16752;53.364;-1.488;2023-06-19T05:04:24;15.10;;;12.32;;
29878;SDS011;16752;53.364;-1.488;2023-06-19T05:07:09;14.73;;;12.02;;
29878;SDS011;16752;53.364;-1.488;2023-06-19T05:09:54;16.08;;;12.80;;
29878;SDS011;16752;53.364;-1.488;2023-06-19T05:12:38;14.10;;;12.60;;
29878;SDS011;16752;53.364;-1.488;2023-06-19T05:15:23;14.93;;;13.32;;
29878;SDS011;16752;53.364;-1.488;2023-06-19T05:18:19;15.52;;;12.82;;
29878;SDS011;16752;53.364;-1.488;2023-06-19T05:21:03;16.42;;;13.55;;
29878;SDS011;16752;53.364;-1.488;2023-06-19T05:23:47;19.10;;;14.55;;
29878;SDS011;16752;53.364;-1.488;2023-06-19T05:26:33;21.02;;;15.18;;
29878;SDS011;16752;53.364;-1.488;2023-06-19T05:29:18;21.15;;;14.80;;
29878;SDS011;16752;53.364;-1.488;2023-06-19T05:32:02;18.13;;;14.80;;
29878;SDS011;16752;53.364;-1.488;2023-06-19T05:34:46;16.98;;;15.18;;
29878;SDS011;16752;53.364;-1.488;2023-06-19T05:37:51;17.15;;;14.88;;
29878;SDS011;16752;53.364;-1.488;2023-06-19T05:40:39;17.58;;;13.82;;
29878;SDS011;16752;53.364;-1.488;2023-06-19T05:43:23;18.60;;;15.48;;
29878;SDS011;16752;53.364;-1.488;2023-06-19T05:46:08;16.40;;;14.20;;
29878;SDS011;16752;53.364;-1.488;2023-06-19T05:48:52;20.45;;;14.18;;
29878;SDS011;16752;53.364;-1.488;2023-06-19T05:51:38;19.75;;;13.93;;
29878;SDS011;16752;53.364;-1.488;2023-06-19T05:54:22;16.00;;;13.15;;
29878;SDS011;16752;53.364;-1.488;2023-06-19T05:57:06;14.85;;;12.50;;
29878;SDS011;16752;53.364;-1.488;2023-06-19T05:59:50;19.00;;;13.02;;
29878;SDS011;16752;53.364;-1.488;2023-06-19T06:02:36;19.35;;;13.25;;
29878;SDS011;16752;53.364;-1.488;2023-06-19T06:05:20;16.92;;;12.27;;
29878;SDS011;16752;53.364;-1.488;2023-06-19T06:08:04;14.68;;;11.70;;
29878;SDS011;16752;53.364;-1.488;2023-06-19T06:10:54;13.32;;;11.77;;
29878;SDS011;16752;53.364;-1.488;2023-06-19T06:13:38;15.65;;;11.32;;
29878;SDS011;16752;53.364;-1.488;2023-06-19T06:16:22;21.13;;;12.90;;
29878;SDS011;16752;53.364;-1.488;2023-06-19T06:19:06;16.20;;;11.63;;
29878;SDS011;16752;53.364;-1.488;2023-06-19T06:21:50;13.40;;;11.30;;
29878;SDS011;16752;53.364;-1.488;2023-06-19T06:24:34;14.38;;;11.93;;
29878;SDS011;16752;53.364;-1.488;2023-06-19T06:27:18;17.75;;;11.10;;
29878;SDS011;16752;53.364;-1.488;2023-06-19T06:30:05;16.95;;;11.98;;
29878;SDS011;16752;53.364;-1.488;2023-06-19T06:32:50;16.02;;;12.00;;
29878;SDS011;16752;53.364;-1.488;2023-06-19T06:35:35;15.98;;;11.75;;
29878;SDS011;16752;53.364;-1.488;2023-06-19T06:38:28;13.93;;;10.15;;
29878;SDS011;16752;53.364;-1.488;2023-06-19T06:41:12;18.38;;;10.80;;
29878;SDS011;16752;53.364;-1.488;2023-06-19T06:43:56;14.85;;;10.45;;
29878;SDS011;16752;53.364;-1.488;2023-06-19T06:46:41;18.50;;;10.50;;
29878;SDS011;16752;53.364;-1.488;2023-06-19T06:49:31;14.57;;;10.23;;
29878;SDS011;16752;53.364;-1.488;2023-06-19T06:52:15;11.75;;;9.60;;
29878;SDS011;16752;53.364;-1.488;2023-06-19T06:58:17;18.23;;;11.00;;
29878;SDS011;16752;53.364;-1.488;2023-06-19T07:01:20;16.23;;;10.68;;
29878;SDS011;16752;53.364;-1.488;2023-06-19T07:04:04;21.10;;;11.05;;
29878;SDS011;16752;53.364;-1.488;2023-06-19T07:06:48;16.90;;;10.27;;
29878;SDS011;16752;53.364;-1.488;2023-06-19T07:15:39;13.82;;;9.20;;
29878;SDS011;16752;53.364;-1.488;2023-06-19T07:18:26;17.90;;;10.45;;
29878;SDS011;16752;53.364;-1.488;2023-06-19T07:21:13;16.95;;;10.55;;
29878;SDS011;16752;53.364;-1.488;2023-06-19T07:23:59;14.23;;;9.48;;
29878;SDS011;16752;53.364;-1.488;2023-06-19T07:26:43;13.63;;;8.93;;
29878;SDS011;16752;53.364;-1.488;2023-06-19T07:29:54;13.30;;;9.30;;
29878;SDS011;16752;53.364;-1.488;2023-06-19T07:35:28;14.18;;;8.18;;
29878;SDS011;16752;53.364;-1.488;2023-06-19T07:38:32;10.98;;;7.57;;
29878;SDS011;16752;53.364;-1.488;2023-06-19T07:41:16;13.60;;;8.63;;
29878;SDS011;16752;53.364;-1.488;2023-06-19T07:44:00;10.27;;;7.97;;
29878;SDS011;16752;53.364;-1.488;2023-06-19T07:46:44;17.35;;;8.38;;
29878;SDS011;16752;53.364;-1.488;2023-06-19T07:49:28;13.05;;;7.65;;
29878;SDS011;16752;53.364;-1.488;2023-06-19T07:52:12;15.73;;;8.35;;
29878;SDS011;16752;53.364;-1.488;2023-06-19T07:54:57;8.80;;;6.85;;
29878;SDS011;16752;53.364;-1.488;2023-06-19T07:57:41;13.70;;;7.82;;
29878;SDS011;16752;53.364;-1.488;2023-06-19T08:00:25;14.10;;;8.20;;
29878;SDS011;16752;53.364;-1.488;2023-06-19T08:03:10;13.45;;;6.82;;
29878;SDS011;16752;53.364;-1.488;2023-06-19T08:09:16;11.80;;;6.78;;
29878;SDS011;16752;53.364;-1.488;2023-06-19T08:12:01;22.40;;;7.03;;
29878;SDS011;16752;53.364;-1.488;2023-06-19T08:17:34;13.40;;;6.55;;
29878;SDS011;16752;53.364;-1.488;2023-06-19T08:20:21;8.38;;;7.38;;
29878;SDS011;16752;53.364;-1.488;2023-06-19T08:23:10;11.40;;;6.38;;
29878;SDS011;16752;53.364;-1.488;2023-06-19T08:25:54;10.77;;;6.85;;
29878;SDS011;16752;53.364;-1.488;2023-06-19T08:28:41;12.15;;;6.82;;
29878;SDS011;16752;53.364;-1.488;2023-06-19T08:31:26;12.02;;;6.28;;
29878;SDS011;16752;53.364;-1.488;2023-06-19T08:34:12;12.93;;;6.07;;
29878;SDS011;16752;53.364;-1.488;2023-06-19T08:36:56;12.27;;;6.28;;
29878;SDS011;16752;53.364;-1.488;2023-06-19T08:39:40;8.27;;;5.57;;
29878;SDS011;16752;53.364;-1.488;2023-06-19T08:42:24;10.52;;;6.10;;
29878;SDS011;16752;53.364;-1.488;2023-06-19T08:45:09;7.80;;;5.30;;
29878;SDS011;16752;53.364;-1.488;2023-06-19T08:48:03;10.55;;;5.25;;
29878;SDS011;16752;53.364;-1.488;2023-06-19T08:50:49;7.90;;;5.30;;
29878;SDS011;16752;53.364;-1.488;2023-06-19T08:53:33;7.07;;;5.65;;
29878;SDS011;16752;53.364;-1.488;2023-06-19T08:56:33;7.35;;;5.38;;
29878;SDS011;16752;53.364;-1.488;2023-06-19T08:59:18;8.20;;;5.13;;
29878;SDS011;16752;53.364;-1.488;2023-06-19T09:02:11;10.57;;;5.95;;
29878;SDS011;16752;53.364;-1.488;2023-06-19T09:04:55;8.40;;;5.45;;
29878;SDS011;16752;53.364;-1.488;2023-06-19T09:07:59;8.93;;;5.53;;
29878;SDS011;16752;53.364;-1.488;2023-06-19T09:11:08;6.00;;;4.97;;
29878;SDS011;16752;53.364;-1.488;2023-06-19T09:13:56;12.32;;;5.30;;
29878;SDS011;16752;53.364;-1.488;2023-06-19T09:16:43;8.50;;;5.93;;
29878;SDS011;16752;53.364;-1.488;2023-06-19T09:19:27;10.60;;;6.00;;
29878;SDS011;16752;53.364;-1.488;2023-06-19T09:22:12;9.15;;;5.05;;
29878;SDS011;16752;53.364;-1.488;2023-06-19T09:24:59;6.53;;;4.68;;
29878;SDS011;16752;53.364;-1.488;2023-06-19T09:27:56;11.38;;;5.13;;
29878;SDS011;16752;53.364;-1.488;2023-06-19T09:34:48;5.25;;;3.97;;
29878;SDS011;16752;53.364;-1.488;2023-06-19T09:37:34;8.90;;;4.50;;
29878;SDS011;16752;53.364;-1.488;2023-06-19T09:40:39;7.30;;;4.78;;
29878;SDS011;16752;53.364;-1.488;2023-06-19T09:43:40;9.45;;;5.40;;
29878;SDS011;16752;53.364;-1.488;2023-06-19T09:46:26;5.68;;;4.78;;
29878;SDS011;16752;53.364;-1.488;2023-06-19T09:49:20;7.20;;;4.45;;
29878;SDS011;16752;53.364;-1.488;2023-06-19T09:52:15;5.53;;;4.43;;
29878;SDS011;16752;53.364;-1.488;2023-06-19T09:55:02;6.97;;;4.60;;
29878;SDS011;16752;53.364;-1.488;2023-06-19T09:57:48;6.50;;;4.38;;
29878;SDS011;16752;53.364;-1.488;2023-06-19T10:00:38;7.15;;;4.15;;
29878;SDS011;16752;53.364;-1.488;2023-06-19T10:03:39;8.55;;;4.43;;
29878;SDS011;16752;53.364;-1.488;2023-06-19T10:06:27;7.40;;;3.90;;
29878;SDS011;16752;53.364;-1.488;2023-06-19T10:09:19;4.85;;;4.03;;
29878;SDS011;16752;53.364;-1.488;2023-06-19T10:19:52;5.35;;;3.88;;
29878;SDS011;16752;53.364;-1.488;2023-06-19T10:22:36;6.70;;;3.95;;
29878;SDS011;16752;53.364;-1.488;2023-06-19T10:28:53;6.97;;;4.88;;
29878;SDS011;16752;53.364;-1.488;2023-06-19T10:31:40;5.03;;;4.57;;
29878;SDS011;16752;53.364;-1.488;2023-06-19T10:34:49;7.35;;;4.72;;
29878;SDS011;16752;53.364;-1.488;2023-06-19T10:42:57;6.88;;;4.50;;
29878;SDS011;16752;53.364;-1.488;2023-06-19T10:48:52;9.32;;;4.75;;
29878;SDS011;16752;53.364;-1.488;2023-06-19T10:51:43;5.75;;;3.80;;
29878;SDS011;16752;53.364;-1.488;2023-06-19T10:54:28;6.10;;;4.85;;
29878;SDS011;16752;53.364;-1.488;2023-06-19T10:57:15;6.97;;;3.83;;
29878;SDS011;16752;53.364;-1.488;2023-06-19T10:59:59;6.55;;;4.50;;
29878;SDS011;16752;53.364;-1.488;2023-06-19T11:05:55;6.57;;;4.63;;
29878;SDS011;16752;53.364;-1.488;2023-06-19T11:08:39;5.72;;;3.90;;
29878;SDS011;16752;53.364;-1.488;2023-06-19T11:11:59;9.50;;;4.93;;
29878;SDS011;16752;53.364;-1.488;2023-06-19T11:22:04;5.72;;;4.35;;
29878;SDS011;16752;53.364;-1.488;2023-06-19T11:24:48;9.48;;;3.97;;
29878;SDS011;16752;53.364;-1.488;2023-06-19T11:27:32;6.95;;;4.13;;
29878;SDS011;16752;53.364;-1.488;2023-06-19T11:30:59;5.72;;;3.72;;
29878;SDS011;16752;53.364;-1.488;2023-06-19T11:34:09;10.57;;;3.85;;
29878;SDS011;16752;53.364;-1.488;2023-06-19T11:36:56;5.32;;;3.58;;
29878;SDS011;16752;53.364;-1.488;2023-06-19T11:39:48;5.25;;;3.72;;
29878;SDS011;16752;53.364;-1.488;2023-06-19T11:42:55;5.30;;;3.33;;
29878;SDS011;16752;53.364;-1.488;2023-06-19T11:46:07;11.60;;;4.63;;
29878;SDS011;16752;53.364;-1.488;2023-06-19T11:52:06;5.32;;;4.22;;
29878;SDS011;16752;53.364;-1.488;2023-06-19T11:54:53;10.00;;;4.85;;
29878;SDS011;16752;53.364;-1.488;2023-06-19T11:57:45;5.47;;;3.80;;
29878;SDS011;16752;53.364;-1.488;2023-06-19T12:00:35;6.32;;;3.97;;
29878;SDS011;16752;53.364;-1.488;2023-06-19T12:03:36;4.95;;;3.83;;
29878;SDS011;16752;53.364;-1.488;2023-06-19T12:06:20;6.13;;;3.38;;
29878;SDS011;16752;53.364;-1.488;2023-06-19T12:09:10;3.25;;;2.95;;
29878;SDS011;16752;53.364;-1.488;2023-06-19T12:11:58;4.90;;;3.65;;
29878;SDS011;16752;53.364;-1.488;2023-06-19T12:18:25;4.28;;;3.53;;
29878;SDS011;16752;53.364;-1.488;2023-06-19T12:21:17;4.65;;;3.80;;
29878;SDS011;16752;53.364;-1.488;2023-06-19T12:27:43;4.95;;;4.13;;
29878;SDS011;16752;53.364;-1.488;2023-06-19T12:30:27;5.95;;;4.18;;
29878;SDS011;16752;53.364;-1.488;2023-06-19T12:33:11;4.43;;;4.03;;
29878;SDS011;16752;53.364;-1.488;2023-06-19T12:35:55;6.82;;;5.47;;
29878;SDS011;16752;53.364;-1.488;2023-06-19T12:38:45;7.55;;;4.70;;
29878;SDS011;16752;53.364;-1.488;2023-06-19T12:41:58;7.40;;;5.72;;
29878;SDS011;16752;53.364;-1.488;2023-06-19T12:44:45;9.77;;;5.00;;
29878;SDS011;16752;53.364;-1.488;2023-06-19T12:47:32;5.90;;;5.25;;
29878;SDS011;16752;53.364;-1.488;2023-06-19T12:50:23;7.68;;;4.43;;
29878;SDS011;16752;53.364;-1.488;2023-06-19T12:53:07;5.70;;;4.70;;
29878;SDS011;16752;53.364;-1.488;2023-06-19T12:58:39;6.40;;;4.53;;
29878;SDS011;16752;53.364;-1.488;2023-06-19T13:01:29;8.18;;;4.78;;
29878;SDS011;16752;53.364;-1.488;2023-06-19T13:04:24;12.00;;;5.30;;
29878;SDS011;16752;53.364;-1.488;2023-06-19T13:07:08;8.65;;;6.38;;
29878;SDS011;16752;53.364;-1.488;2023-06-19T13:10:02;6.30;;;5.70;;
29878;SDS011;16752;53.364;-1.488;2023-06-19T13:13:07;6.80;;;5.20;;
29878;SDS011;16752;53.364;-1.488;2023-06-19T13:15:59;7.53;;;5.60;;
29878;SDS011;16752;53.364;-1.488;2023-06-19T13:18:46;6.57;;;5.07;;
29878;SDS011;16752;53.364;-1.488;2023-06-19T13:21:30;9.30;;;5.25;;
29878;SDS011;16752;53.364;-1.488;2023-06-19T13:24:21;7.75;;;5.88;;
29878;SDS011;16752;53.364;-1.488;2023-06-19T13:30:57;11.45;;;6.20;;
29878;SDS011;16752;53.364;-1.488;2023-06-19T13:33:44;9.13;;;5.88;;
29878;SDS011;16752;53.364;-1.488;2023-06-19T13:39:16;6.50;;;4.93;;
29878;SDS011;16752;53.364;-1.488;2023-06-19T13:42:20;5.65;;;3.88;;
29878;SDS011;16752;53.364;-1.488;2023-06-19T13:45:24;6.25;;;4.55;;
29878;SDS011;16752;53.364;-1.488;2023-06-19T13:48:33;7.28;;;5.32;;
29878;SDS011;16752;53.364;-1.488;2023-06-19T13:51:18;6.28;;;4.55;;
29878;SDS011;16752;53.364;-1.488;2023-06-19T13:54:12;8.02;;;4.43;;
29878;SDS011;16752;53.364;-1.488;2023-06-19T13:57:46;5.85;;;4.70;;
29878;SDS011;16752;53.364;-1.488;2023-06-19T14:00:42;8.13;;;4.22;;
29878;SDS011;16752;53.364;-1.488;2023-06-19T14:03:27;4.63;;;3.97;;
29878;SDS011;16752;53.364;-1.488;2023-06-19T14:06:30;6.95;;;4.20;;
29878;SDS011;16752;53.364;-1.488;2023-06-19T14:09:30;7.15;;;4.07;;
29878;SDS011;16752;53.364;-1.488;2023-06-19T14:12:16;5.55;;;3.78;;
29878;SDS011;16752;53.364;-1.488;2023-06-19T14:15:02;6.75;;;4.00;;
29878;SDS011;16752;53.364;-1.488;2023-06-19T14:17:49;6.65;;;4.47;;
29878;SDS011;16752;53.364;-1.488;2023-06-19T14:20:33;5.57;;;3.72;;
29878;SDS011;16752;53.364;-1.488;2023-06-19T14:23:44;5.43;;;3.40;;
29878;SDS011;16752;53.364;-1.488;2023-06-19T14:27:02;8.02;;;4.05;;
29878;SDS011;16752;53.364;-1.488;2023-06-19T14:33:14;7.63;;;3.65;;
29878;SDS011;16752;53.364;-1.488;2023-06-19T14:36:16;6.50;;;3.40;;
29878;SDS011;16752;53.364;-1.488;2023-06-19T14:46:04;4.35;;;3.20;;
29878;SDS011;16752;53.364;-1.488;2023-06-19T14:52:14;7.28;;;3.30;;
29878;SDS011;16752;53.364;-1.488;2023-06-19T14:58:31;4.55;;;3.17;;
29878;SDS011;16752;53.364;-1.488;2023-06-19T15:05:15;2.90;;;2.55;;
29878;SDS011;16752;53.364;-1.488;2023-06-19T15:08:56;5.18;;;2.88;;
29878;SDS011;16752;53.364;-1.488;2023-06-19T15:20:44;7.53;;;2.90;;
29878;SDS011;16752;53.364;-1.488;2023-06-19T15:23:29;3.95;;;2.80;;
29878;SDS011;16752;53.364;-1.488;2023-06-19T15:26:12;5.55;;;2.88;;
29878;SDS011;16752;53.364;-1.488;2023-06-19T15:29:00;3.80;;;2.70;;
29878;SDS011;16752;53.364;-1.488;2023-06-19T15:36:09;4.97;;;2.40;;
29878;SDS011;16752;53.364;-1.488;2023-06-19T15:45:12;3.28;;;2.40;;
29878;SDS011;16752;53.364;-1.488;2023-06-19T15:51:23;4.10;;;2.05;;
29878;SDS011;16752;53.364;-1.488;2023-06-19T15:54:16;4.82;;;2.08;;
29878;SDS011;16752;53.364;-1.488;2023-06-19T16:00:04;4.28;;;2.28;;
29878;SDS011;16752;53.364;-1.488;2023-06-19T16:07:35;5.82;;;2.75;;
29878;SDS011;16752;53.364;-1.488;2023-06-19T16:13:11;4.13;;;2.50;;
29878;SDS011;16752;53.364;-1.488;2023-06-19T16:19:12;4.43;;;2.58;;
29878;SDS011;16752;53.364;-1.488;2023-06-19T16:22:01;6.05;;;2.17;;
29878;SDS011;16752;53.364;-1.488;2023-06-19T16:24:56;3.97;;;2.20;;
29878;SDS011;16752;53.364;-1.488;2023-06-19T16:27:42;3.03;;;1.83;;
29878;SDS011;16752;53.364;-1.488;2023-06-19T16:30:26;3.42;;;2.53;;
29878;SDS011;16752;53.364;-1.488;2023-06-19T16:36:22;7.20;;;2.60;;
29878;SDS011;16752;53.364;-1.488;2023-06-19T16:42:53;5.05;;;2.40;;
29878;SDS011;16752;53.364;-1.488;2023-06-19T16:49:32;2.70;;;2.15;;
29878;SDS011;16752;53.364;-1.488;2023-06-19T16:52:19;5.60;;;2.08;;
29878;SDS011;16752;53.364;-1.488;2023-06-19T16:55:03;4.88;;;2.63;;
29878;SDS011;16752;53.364;-1.488;2023-06-19T16:57:54;2.42;;;1.80;;
29878;SDS011;16752;53.364;-1.488;2023-06-19T17:00:38;3.80;;;2.03;;
29878;SDS011;16752;53.364;-1.488;2023-06-19T17:03:25;3.10;;;2.22;;
29878;SDS011;16752;53.364;-1.488;2023-06-19T17:06:12;4.80;;;2.10;;
29878;SDS011;16752;53.364;-1.488;2023-06-19T17:08:56;2.58;;;1.58;;
29878;SDS011;16752;53.364;-1.488;2023-06-19T17:11:40;3.47;;;2.08;;
29878;SDS011;16752;53.364;-1.488;2023-06-19T17:14:24;4.35;;;1.90;;
29878;SDS011;16752;53.364;-1.488;2023-06-19T17:17:08;2.92;;;2.17;;
29878;SDS011;16752;53.364;-1.488;2023-06-19T17:19:53;5.43;;;2.15;;
29878;SDS011;16752;53.364;-1.488;2023-06-19T17:22:39;5.97;;;2.45;;
29878;SDS011;16752;53.364;-1.488;2023-06-19T17:25:27;3.90;;;1.88;;
29878;SDS011;16752;53.364;-1.488;2023-06-19T17:28:11;3.20;;;2.17;;
29878;SDS011;16752;53.364;-1.488;2023-06-19T17:30:55;4.50;;;2.13;;
29878;SDS011;16752;53.364;-1.488;2023-06-19T17:33:42;1.83;;;1.65;;
29878;SDS011;16752;53.364;-1.488;2023-06-19T17:36:29;3.85;;;2.10;;
29878;SDS011;16752;53.364;-1.488;2023-06-19T17:39:15;2.45;;;1.98;;
29878;SDS011;16752;53.364;-1.488;2023-06-19T17:42:04;3.67;;;1.88;;
29878;SDS011;16752;53.364;-1.488;2023-06-19T17:44:52;2.00;;;1.70;;
29878;SDS011;16752;53.364;-1.488;2023-06-19T17:47:54;3.05;;;2.17;;
29878;SDS011;16752;53.364;-1.488;2023-06-19T17:50:54;3.97;;;2.10;;
29878;SDS011;16752;53.364;-1.488;2023-06-19T17:53:57;3.22;;;2.10;;
29878;SDS011;16752;53.364;-1.488;2023-06-19T17:56:41;3.40;;;2.17;;
29878;SDS011;16752;53.364;-1.488;2023-06-19T17:59:28;2.22;;;1.80;;
29878;SDS011;16752;53.364;-1.488;2023-06-19T18:02:12;2.00;;;1.77;;
29878;SDS011;16752;53.364;-1.488;2023-06-19T18:04:56;4.97;;;2.45;;
29878;SDS011;16752;53.364;-1.488;2023-06-19T18:07:40;5.07;;;2.63;;
29878;SDS011;16752;53.364;-1.488;2023-06-19T18:10:27;4.00;;;2.15;;
29878;SDS011;16752;53.364;-1.488;2023-06-19T18:13:12;5.30;;;2.13;;
29878;SDS011;16752;53.364;-1.488;2023-06-19T18:16:01;2.83;;;2.13;;
29878;SDS011;16752;53.364;-1.488;2023-06-19T18:18:45;4.60;;;2.53;;
29878;SDS011;16752;53.364;-1.488;2023-06-19T18:21:29;4.97;;;2.65;;
29878;SDS011;16752;53.364;-1.488;2023-06-19T18:24:14;3.10;;;2.10;;
29878;SDS011;16752;53.364;-1.488;2023-06-19T18:26:58;6.50;;;2.42;;
29878;SDS011;16752;53.364;-1.488;2023-06-19T18:29:42;2.42;;;2.20;;
29878;SDS011;16752;53.364;-1.488;2023-06-19T18:32:26;4.88;;;2.45;;
29878;SDS011;16752;53.364;-1.488;2023-06-19T18:35:10;6.03;;;1.98;;
29878;SDS011;16752;53.364;-1.488;2023-06-19T18:37:54;4.65;;;2.50;;
29878;SDS011;16752;53.364;-1.488;2023-06-19T18:40:41;3.10;;;2.60;;
29878;SDS011;16752;53.364;-1.488;2023-06-19T18:43:29;3.45;;;2.22;;
29878;SDS011;16752;53.364;-1.488;2023-06-19T18:46:13;3.30;;;1.92;;
29878;SDS011;16752;53.364;-1.488;2023-06-19T18:48:57;3.15;;;2.13;;
29878;SDS011;16752;53.364;-1.488;2023-06-19T18:51:41;4.00;;;2.13;;
29878;SDS011;16752;53.364;-1.488;2023-06-19T18:54:25;4.60;;;2.45;;